Time;durP1;ratioP1;P1;durP2;ratioP2;P2;SDS_P1;SDS_P2;PMS_P1;PMS_P2;Temp;Humidity;BMP_temperature;BMP_pressure;BME280_temperature;BME280_humidity;BME280_pressure;Samples;Min_cycle;Max_cycle;Signal;HPM_P1;HPM_P2
2023/01/27 00:00:52;;;;;;;9.48;1.70;;;7.50;99.90;;;;;;5065593;28;20077;-68
2023/01/27 00:03:17;;;;;;;8.40;1.35;;;7.60;99.90;;;;;;5059822;28;20995;-67
2023/01/27 00:05:44;;;;;;;12.20;1.98;;;7.60;99.90;;;;;;5058820;28;20762;-68
2023/01/27 00:08:09;;;;;;;7.70;1.52;;;7.60;99.90;;;;;;5062547;28;20094;-68
2023/01/27 00:10:35;;;;;;;12.40;2.17;;;7.60;99.90;;;;;;5062691;28;20728;-70
2023/01/27 00:15:45;;;;;;;14.55;1.77;;;7.60;99.90;;;;;;5060632;28;20079;-67
2023/01/27 00:18:11;;;;;;;15.63;2.47;;;7.60;99.90;;;;;;5062719;28;20063;-70
2023/01/27 00:26:11;;;;;;;11.88;2.17;;;7.60;99.90;;;;;;5063935;28;20110;-67
2023/01/27 00:28:39;;;;;;;12.57;1.40;;;7.50;99.90;;;;;;5064938;28;20029;-67
2023/01/27 00:31:07;;;;;;;12.27;1.73;;;7.50;99.90;;;;;;5064790;28;20720;-69
2023/01/27 00:33:33;;;;;;;13.27;2.00;;;7.50;99.90;;;;;;5053435;28;20037;-67
2023/01/27 00:36:05;;;;;;;8.23;2.08;;;7.50;99.90;;;;;;5054770;28;20040;-68
2023/01/27 00:38:40;;;;;;;18.80;1.77;;;7.60;99.90;;;;;;5064948;28;20020;-68
2023/01/27 00:41:20;;;;;;;9.65;1.38;;;7.60;99.90;;;;;;5059197;28;20402;-70
2023/01/27 00:43:57;;;;;;;11.90;2.50;;;7.50;99.90;;;;;;5064891;28;20504;-69
2023/01/27 00:46:24;;;;;;;12.23;2.00;;;7.50;99.90;;;;;;5062261;28;20028;-68
2023/01/27 00:48:51;;;;;;;9.35;2.25;;;7.60;99.90;;;;;;5061745;28;20044;-70
2023/01/27 00:51:18;;;;;;;10.38;1.55;;;7.50;99.90;;;;;;5062045;28;20094;-68
2023/01/27 00:53:44;;;;;;;8.52;1.02;;;7.50;99.90;;;;;;5059763;28;20032;-69
2023/01/27 00:56:15;;;;;;;8.88;1.50;;;7.50;99.90;;;;;;5064368;28;20021;-67
2023/01/27 00:58:41;;;;;;;13.30;2.20;;;7.50;99.90;;;;;;5048253;28;20031;-69
2023/01/27 01:01:10;;;;;;;9.25;1.85;;;7.50;99.90;;;;;;5060912;28;20498;-69
2023/01/27 01:03:36;;;;;;;7.30;1.30;;;7.50;99.90;;;;;;5059269;28;20442;-69
2023/01/27 01:06:05;;;;;;;11.27;1.50;;;7.40;99.90;;;;;;5064141;28;20024;-70
2023/01/27 01:08:32;;;;;;;10.50;1.75;;;7.40;99.90;;;;;;5057512;28;20036;-70
2023/01/27 01:11:01;;;;;;;8.65;1.67;;;7.40;99.90;;;;;;5035777;28;20029;-69
2023/01/27 01:13:28;;;;;;;7.07;1.48;;;7.40;99.90;;;;;;5061210;28;20037;-68
2023/01/27 01:15:56;;;;;;;8.30;2.50;;;7.40;99.90;;;;;;5057109;28;20033;-72
2023/01/27 01:18:24;;;;;;;14.48;2.15;;;7.40;99.90;;;;;;5058281;28;20480;-69
2023/01/27 01:20:50;;;;;;;19.70;3.53;;;7.40;99.90;;;;;;5058937;28;20035;-69
2023/01/27 01:23:15;;;;;;;9.35;1.85;;;7.40;99.90;;;;;;5062410;28;20051;-71
2023/01/27 01:25:42;;;;;;;7.10;1.65;;;7.40;99.90;;;;;;5057526;28;20031;-68
2023/01/27 01:28:08;;;;;;;5.55;1.70;;;7.40;99.90;;;;;;5058009;28;20047;-68
2023/01/27 01:30:37;;;;;;;11.70;2.55;;;7.30;99.90;;;;;;5053122;28;20029;-69
2023/01/27 01:33:04;;;;;;;5.03;1.83;;;7.30;99.90;;;;;;5055346;28;20084;-68
2023/01/27 01:35:30;;;;;;;8.63;2.03;;;7.30;99.90;;;;;;5059659;28;20526;-68
2023/01/27 01:37:56;;;;;;;8.77;2.15;;;7.30;99.90;;;;;;5061089;28;20050;-70
2023/01/27 01:40:21;;;;;;;8.25;1.90;;;7.30;99.90;;;;;;5052266;28;20028;-69
2023/01/27 01:42:59;;;;;;;12.73;4.53;;;7.20;99.90;;;;;;5061615;28;20027;-71
2023/01/27 01:45:38;;;;;;;9.30;1.67;;;7.20;99.90;;;;;;5053893;28;20029;-69
2023/01/27 01:48:16;;;;;;;11.00;2.50;;;7.20;99.90;;;;;;5057787;28;20033;-71
2023/01/27 01:50:46;;;;;;;7.40;2.47;;;7.20;99.90;;;;;;5059284;28;20039;-69
2023/01/27 01:53:12;;;;;;;4.25;1.63;;;7.10;99.90;;;;;;5063545;28;20111;-69
2023/01/27 01:55:39;;;;;;;10.77;2.10;;;7.10;99.90;;;;;;5053451;28;20032;-67
2023/01/27 01:58:07;;;;;;;7.43;2.53;;;7.10;99.90;;;;;;5053634;28;20029;-69
2023/01/27 02:00:36;;;;;;;10.68;1.83;;;7.10;99.90;;;;;;5061152;28;20043;-68
2023/01/27 02:03:02;;;;;;;5.75;1.77;;;7.10;99.90;;;;;;5057587;28;20037;-69
2023/01/27 02:05:42;;;;;;;9.75;2.30;;;7.10;99.90;;;;;;5061891;28;20025;-67
2023/01/27 02:08:18;;;;;;;9.52;2.25;;;7.00;99.90;;;;;;5062649;28;20483;-68
2023/01/27 02:10:44;;;;;;;8.13;2.70;;;7.00;99.90;;;;;;5063680;28;20361;-69
2023/01/27 02:13:11;;;;;;;11.30;2.80;;;6.90;99.90;;;;;;5069724;28;20029;-69
2023/01/27 02:15:37;;;;;;;6.85;3.13;;;6.80;99.90;;;;;;5059200;28;20070;-70
2023/01/27 02:18:03;;;;;;;7.40;3.28;;;6.80;99.90;;;;;;5068077;28;20129;-68
2023/01/27 02:20:45;;;;;;;12.50;3.72;;;6.80;99.90;;;;;;5060165;28;20035;-69
2023/01/27 02:23:33;;;;;;;9.00;3.70;;;6.70;99.90;;;;;;5065585;28;20108;-71
2023/01/27 02:26:11;;;;;;;10.85;3.92;;;6.70;99.90;;;;;;5066976;28;20150;-69
2023/01/27 02:28:37;;;;;;;13.45;4.32;;;6.60;99.90;;;;;;5053842;28;20025;-70
2023/01/27 02:31:02;;;;;;;12.00;4.50;;;6.60;99.90;;;;;;5066760;28;20124;-70
2023/01/27 02:33:28;;;;;;;13.18;5.03;;;6.50;99.90;;;;;;5058854;28;20435;-67
2023/01/27 02:36:11;;;;;;;15.60;5.85;;;6.50;99.90;;;;;;5066691;28;20112;-69
2023/01/27 02:38:42;;;;;;;17.23;6.43;;;6.40;99.90;;;;;;5065572;28;20573;-69
2023/01/27 02:41:36;;;;;;;13.80;4.80;;;6.40;99.90;;;;;;5064776;28;20554;-67
2023/01/27 02:44:02;;;;;;;11.15;4.47;;;6.40;99.90;;;;;;5061258;28;20090;-68
2023/01/27 02:46:27;;;;;;;19.48;5.88;;;6.40;99.90;;;;;;5057651;28;20029;-68
2023/01/27 02:48:54;;;;;;;12.57;4.70;;;6.30;99.90;;;;;;5068533;28;20377;-67
2023/01/27 02:51:19;;;;;;;11.90;5.18;;;6.40;99.90;;;;;;5065718;28;20143;-67
2023/01/27 02:53:45;;;;;;;14.80;5.78;;;6.40;99.90;;;;;;5062871;28;20147;-68
2023/01/27 02:56:11;;;;;;;16.77;4.63;;;6.30;99.90;;;;;;5067519;28;20086;-67
2023/01/27 02:58:37;;;;;;;16.52;5.43;;;6.30;99.90;;;;;;5064702;28;20524;-69
2023/01/27 03:01:03;;;;;;;11.23;4.80;;;6.30;99.90;;;;;;5066681;28;20104;-69
2023/01/27 03:03:29;;;;;;;10.27;4.10;;;6.30;99.90;;;;;;5068992;28;20033;-68
2023/01/27 03:05:54;;;;;;;11.75;3.97;;;6.30;99.90;;;;;;5064543;28;20384;-70
2023/01/27 03:08:20;;;;;;;12.20;4.35;;;6.20;99.90;;;;;;5072483;28;20024;-68
2023/01/27 03:10:50;;;;;;;10.43;3.95;;;6.20;99.90;;;;;;5062443;28;20417;-67
2023/01/27 03:13:19;;;;;;;11.02;3.67;;;6.20;99.90;;;;;;5068648;28;20025;-67
2023/01/27 03:18:29;;;;;;;14.88;4.28;;;6.10;99.90;;;;;;5070364;28;20064;-70
2023/01/27 03:21:00;;;;;;;12.95;4.13;;;6.00;99.90;;;;;;5057531;28;20119;-68
2023/01/27 03:23:26;;;;;;;11.52;4.47;;;6.00;99.90;;;;;;5069362;28;20031;-69
2023/01/27 03:25:52;;;;;;;12.90;4.72;;;5.90;99.90;;;;;;5066578;28;20083;-72
2023/01/27 03:28:17;;;;;;;14.55;4.90;;;5.90;99.90;;;;;;5072836;28;20032;-69
2023/01/27 03:30:43;;;;;;;14.18;4.72;;;5.90;99.90;;;;;;5059464;28;20078;-68
2023/01/27 03:33:09;;;;;;;12.68;5.20;;;5.90;99.90;;;;;;5072100;28;20021;-68
2023/01/27 03:35:47;;;;;;;14.70;5.25;;;5.90;99.90;;;;;;5061908;28;20361;-70
2023/01/27 03:46:31;;;;;;;11.50;4.90;;;5.90;99.90;;;;;;5061126;28;20067;-67
2023/01/27 03:48:58;;;;;;;16.85;4.72;;;5.90;99.90;;;;;;5062468;28;20033;-68
2023/01/27 03:51:25;;;;;;;7.32;4.03;;;5.90;99.90;;;;;;5073856;28;20052;-68
2023/01/27 03:53:52;;;;;;;11.45;5.18;;;5.90;99.90;;;;;;5064191;28;20045;-68
2023/01/27 03:56:19;;;;;;;11.40;4.97;;;5.90;99.90;;;;;;5071825;28;20098;-68
2023/01/27 03:58:46;;;;;;;7.88;3.90;;;5.90;99.90;;;;;;5071583;28;20058;-67
2023/01/27 04:01:15;;;;;;;12.05;5.10;;;5.90;99.90;;;;;;5057831;28;20059;-68
2023/01/27 04:09:28;;;;;;;9.80;4.18;;;5.90;99.90;;;;;;5057586;28;20027;-68
2023/01/27 04:11:54;;;;;;;6.55;3.63;;;5.80;99.90;;;;;;5069556;28;20025;-68
2023/01/27 04:14:22;;;;;;;8.43;3.50;;;5.80;99.90;;;;;;5068274;28;20171;-68
2023/01/27 04:16:50;;;;;;;8.88;3.85;;;5.90;99.90;;;;;;5067753;28;20127;-68
2023/01/27 04:19:16;;;;;;;9.73;3.00;;;5.90;99.90;;;;;;5074249;28;20045;-68
2023/01/27 04:21:42;;;;;;;6.38;3.03;;;5.80;99.90;;;;;;5064610;28;20137;-68
2023/01/27 04:24:15;;;;;;;6.93;3.20;;;5.90;99.90;;;;;;5074864;28;20418;-68
2023/01/27 04:26:44;;;;;;;8.70;3.10;;;5.90;99.90;;;;;;5064825;28;20028;-68
2023/01/27 04:29:13;;;;;;;8.45;3.55;;;5.90;99.90;;;;;;5058072;28;20492;-68
2023/01/27 04:31:39;;;;;;;8.45;3.08;;;5.90;99.90;;;;;;5071255;28;20460;-68
2023/01/27 04:34:06;;;;;;;6.40;2.80;;;5.90;99.90;;;;;;5065772;28;20388;-67
2023/01/27 04:36:31;;;;;;;8.00;3.20;;;5.90;99.90;;;;;;5072795;28;20058;-68
2023/01/27 04:38:57;;;;;;;5.60;2.97;;;5.90;99.90;;;;;;5073421;28;20036;-68
2023/01/27 04:41:22;;;;;;;6.35;3.05;;;5.90;99.90;;;;;;5055187;28;20060;-68
2023/01/27 04:43:48;;;;;;;5.18;2.72;;;5.80;99.90;;;;;;5061772;28;20062;-68
2023/01/27 04:46:14;;;;;;;4.43;2.65;;;5.90;99.90;;;;;;5062271;28;20056;-68
2023/01/27 04:48:39;;;;;;;3.28;2.35;;;5.90;99.90;;;;;;5069425;28;20060;-68
2023/01/27 04:51:05;;;;;;;7.10;2.60;;;5.80;99.90;;;;;;5057821;28;20370;-68
2023/01/27 04:53:31;;;;;;;6.38;2.60;;;5.80;99.90;;;;;;5074084;28;20029;-67
2023/01/27 04:56:06;;;;;;;4.70;2.50;;;5.90;99.90;;;;;;5054257;28;20541;-68
2023/01/27 04:58:32;;;;;;;6.30;2.22;;;5.90;99.90;;;;;;5070701;28;20036;-68
2023/01/27 05:00:58;;;;;;;5.35;2.47;;;5.80;99.90;;;;;;5055984;28;20029;-67
2023/01/27 05:03:24;;;;;;;4.47;2.30;;;5.80;99.90;;;;;;5059361;28;20483;-68
2023/01/27 05:05:50;;;;;;;4.88;2.00;;;5.80;99.90;;;;;;5068324;28;20032;-68
2023/01/27 05:08:16;;;;;;;5.43;2.40;;;5.80;99.90;;;;;;5072997;28;20478;-69
2023/01/27 05:10:46;;;;;;;5.72;2.35;;;5.80;99.90;;;;;;5067979;28;20104;-69
2023/01/27 05:13:11;;;;;;;6.18;2.20;;;5.70;99.90;;;;;;5057001;28;20074;-68
2023/01/27 05:15:37;;;;;;;4.45;1.95;;;5.80;99.90;;;;;;5066874;28;20033;-68
2023/01/27 05:18:02;;;;;;;6.53;2.40;;;5.80;99.90;;;;;;5056257;28;20090;-68
2023/01/27 05:20:30;;;;;;;5.38;2.15;;;5.80;99.90;;;;;;5066860;28;20117;-68
2023/01/27 05:23:33;;;;;;;8.45;2.38;;;5.70;99.90;;;;;;5071271;28;20043;-68
2023/01/27 05:25:44;;;;;;;7.25;2.83;;;5.70;99.90;;;;;;5060464;28;20052;-68
2023/01/27 05:28:10;;;;;;;5.97;2.50;;;5.60;99.90;;;;;;5072866;28;20103;-68
2023/01/27 05:30:36;;;;;;;6.40;2.25;;;5.60;99.90;;;;;;5058454;28;20025;-69
2023/01/27 05:33:02;;;;;;;5.88;2.30;;;5.60;99.90;;;;;;5069691;28;20500;-68
2023/01/27 05:35:31;;;;;;;3.58;2.25;;;5.60;99.90;;;;;;5057935;28;20043;-68
2023/01/27 05:37:57;;;;;;;4.95;2.67;;;5.60;99.90;;;;;;5070274;28;20036;-68
2023/01/27 05:40:22;;;;;;;5.30;2.10;;;5.60;99.90;;;;;;5060053;28;20029;-69
2023/01/27 05:42:50;;;;;;;4.32;2.33;;;5.60;99.90;;;;;;5066818;28;20032;-69
2023/01/27 05:45:16;;;;;;;6.50;2.45;;;5.60;99.90;;;;;;5057451;28;20024;-68
2023/01/27 05:47:41;;;;;;;5.65;1.92;;;5.60;99.90;;;;;;5065220;28;20025;-69
2023/01/27 05:50:07;;;;;;;7.18;2.35;;;5.60;99.90;;;;;;5062007;28;20025;-70
2023/01/27 05:52:33;;;;;;;5.95;2.22;;;5.60;99.90;;;;;;5058331;28;20029;-69
2023/01/27 05:54:58;;;;;;;6.93;2.28;;;5.60;99.90;;;;;;5070177;28;20045;-69
2023/01/27 05:57:24;;;;;;;5.78;1.88;;;5.60;99.90;;;;;;5067050;28;20035;-68
2023/01/27 05:59:50;;;;;;;4.55;2.17;;;5.60;99.90;;;;;;5061719;28;20056;-69
2023/01/27 06:02:15;;;;;;;6.90;2.60;;;5.60;99.90;;;;;;5061043;28;20021;-68
2023/01/27 06:04:41;;;;;;;6.68;2.63;;;5.60;99.90;;;;;;5054281;28;20094;-69
2023/01/27 06:07:06;;;;;;;6.80;2.90;;;5.60;99.90;;;;;;5068558;28;20392;-69
2023/01/27 06:09:32;;;;;;;4.82;2.55;;;5.60;99.90;;;;;;5056478;28;20481;-68
2023/01/27 06:11:58;;;;;;;5.85;2.22;;;5.60;99.90;;;;;;5062529;28;20518;-68
2023/01/27 06:14:23;;;;;;;10.05;3.20;;;5.50;99.90;;;;;;5059352;28;20036;-69
2023/01/27 06:16:49;;;;;;;5.32;2.10;;;5.50;99.90;;;;;;5069238;28;20039;-68
2023/01/27 06:19:14;;;;;;;4.90;2.00;;;5.40;99.90;;;;;;5067548;28;20049;-69
2023/01/27 06:21:40;;;;;;;6.63;1.88;;;5.40;99.90;;;;;;5059436;28;20028;-69
2023/01/27 06:24:05;;;;;;;4.65;1.90;;;5.30;99.90;;;;;;5061154;28;20029;-68
2023/01/27 06:26:31;;;;;;;4.50;2.10;;;5.20;99.90;;;;;;5066734;28;20060;-69
2023/01/27 06:28:57;;;;;;;7.10;1.92;;;5.10;99.90;;;;;;5081074;28;20527;-70
2023/01/27 06:31:26;;;;;;;4.50;2.05;;;5.10;99.90;;;;;;5067276;28;20131;-67
2023/01/27 06:33:52;;;;;;;5.72;2.28;;;5.00;99.90;;;;;;5055624;28;20028;-71
2023/01/27 06:36:19;;;;;;;6.28;2.60;;;4.90;99.90;;;;;;5066723;28;20023;-69
2023/01/27 06:38:45;;;;;;;4.55;1.98;;;4.80;99.90;;;;;;5071106;28;20087;-68
2023/01/27 06:41:11;;;;;;;4.93;1.80;;;4.80;99.90;;;;;;5059670;28;20494;-71
2023/01/27 06:43:37;;;;;;;7.38;2.10;;;4.70;99.90;;;;;;5071950;28;20044;-70
2023/01/27 06:46:03;;;;;;;3.78;1.65;;;4.70;99.90;;;;;;5062044;28;20067;-71
2023/01/27 06:48:28;;;;;;;3.88;2.08;;;4.70;99.90;;;;;;5052276;28;20025;-70
2023/01/27 06:50:55;;;;;;;4.35;1.80;;;4.70;99.90;;;;;;5068599;28;20037;-71
2023/01/27 06:53:21;;;;;;;6.25;1.98;;;4.60;99.90;;;;;;5055711;28;20021;-68
2023/01/27 06:55:47;;;;;;;5.32;1.80;;;4.50;99.90;;;;;;5061972;28;20456;-69
2023/01/27 06:58:14;;;;;;;4.47;1.77;;;4.50;99.90;;;;;;5060324;28;20513;-68
2023/01/27 07:00:40;;;;;;;6.95;2.13;;;4.40;99.90;;;;;;5066954;28;20078;-70
2023/01/27 07:03:08;;;;;;;7.18;2.28;;;4.30;99.90;;;;;;5055362;28;20033;-70
2023/01/27 07:05:33;;;;;;;4.63;1.60;;;4.30;99.90;;;;;;5058549;28;20020;-69
2023/01/27 07:07:59;;;;;;;5.68;2.22;;;4.30;99.90;;;;;;5062238;28;20032;-69
2023/01/27 07:10:26;;;;;;;3.38;1.65;;;4.30;99.90;;;;;;5065276;28;20083;-70
2023/01/27 07:12:51;;;;;;;5.88;1.65;;;4.20;99.90;;;;;;5037663;28;20444;-70
2023/01/27 07:15:17;;;;;;;4.65;1.67;;;4.20;99.90;;;;;;5069393;28;20110;-69
2023/01/27 07:17:42;;;;;;;3.58;1.58;;;4.10;99.90;;;;;;5064159;28;20036;-70
2023/01/27 07:20:11;;;;;;;4.55;1.90;;;4.10;99.90;;;;;;5063160;28;20056;-70
2023/01/27 07:22:37;;;;;;;3.42;1.70;;;4.10;99.90;;;;;;5059305;28;20557;-68
2023/01/27 07:25:05;;;;;;;2.40;1.30;;;4.10;99.90;;;;;;5055221;28;20056;-70
2023/01/27 07:27:30;;;;;;;4.05;2.00;;;4.00;99.90;;;;;;5065794;28;20025;-69
2023/01/27 07:29:56;;;;;;;7.70;1.90;;;4.00;99.90;;;;;;5061156;28;20024;-70
2023/01/27 07:32:21;;;;;;;4.20;1.80;;;4.00;99.90;;;;;;5058177;28;20029;-71
2023/01/27 07:34:47;;;;;;;6.50;1.92;;;4.00;99.90;;;;;;5067606;28;20468;-69
2023/01/27 07:37:13;;;;;;;5.85;1.80;;;4.00;99.90;;;;;;5055453;28;20031;-69
2023/01/27 07:39:39;;;;;;;5.28;1.77;;;4.00;99.90;;;;;;5070410;28;20025;-70
2023/01/27 07:42:05;;;;;;;5.13;1.65;;;4.00;99.90;;;;;;5070838;28;20040;-70
2023/01/27 07:44:31;;;;;;;5.57;2.33;;;3.90;99.90;;;;;;5067087;28;20064;-69
2023/01/27 07:46:57;;;;;;;5.50;2.05;;;3.90;99.90;;;;;;5058311;28;20071;-71
2023/01/27 07:49:23;;;;;;;5.57;2.17;;;3.90;99.90;;;;;;5074945;28;20029;-68
2023/01/27 07:51:49;;;;;;;7.53;2.25;;;3.90;99.90;;;;;;5068218;28;20388;-70
2023/01/27 07:54:15;;;;;;;7.22;2.00;;;3.80;99.90;;;;;;5047043;28;20444;-69
2023/01/27 07:56:40;;;;;;;4.78;2.08;;;3.90;99.90;;;;;;5066803;28;20056;-70
2023/01/27 07:59:08;;;;;;;5.68;2.30;;;3.80;99.90;;;;;;5064065;28;20099;-68
2023/01/27 08:01:34;;;;;;;6.75;3.83;;;3.80;99.90;;;;;;5062090;28;20032;-68
2023/01/27 08:03:59;;;;;;;5.00;2.13;;;3.80;99.90;;;;;;5065374;28;20029;-69
2023/01/27 08:06:25;;;;;;;3.90;2.03;;;3.80;99.90;;;;;;5064374;28;20024;-70
2023/01/27 08:08:50;;;;;;;6.15;2.47;;;3.80;99.90;;;;;;5066690;28;20048;-67
2023/01/27 08:11:16;;;;;;;4.47;2.10;;;3.80;99.90;;;;;;5057105;28;20037;-67
2023/01/27 08:13:42;;;;;;;6.07;2.30;;;3.80;99.90;;;;;;5063749;28;20104;-70
2023/01/27 08:16:11;;;;;;;3.70;2.13;;;3.80;99.90;;;;;;5074250;28;20111;-70
2023/01/27 08:18:37;;;;;;;3.30;2.13;;;3.90;99.90;;;;;;5065801;28;20048;-70
2023/01/27 08:21:05;;;;;;;4.93;2.20;;;3.90;99.90;;;;;;5048703;28;20021;-69
2023/01/27 08:23:32;;;;;;;5.22;2.40;;;3.90;99.90;;;;;;5072922;28;20111;-71
2023/01/27 08:26:00;;;;;;;5.25;2.10;;;3.90;99.90;;;;;;5065220;28;20025;-70
2023/01/27 08:28:27;;;;;;;4.30;2.10;;;3.90;99.90;;;;;;5067662;28;20020;-70
2023/01/27 08:30:53;;;;;;;6.03;1.92;;;4.00;99.90;;;;;;5058825;28;20028;-68
2023/01/27 08:33:21;;;;;;;7.13;2.00;;;4.00;99.90;;;;;;5072143;28;20024;-68
2023/01/27 08:35:48;;;;;;;5.60;1.85;;;4.10;99.90;;;;;;5065780;28;20049;-68
2023/01/27 08:38:15;;;;;;;3.08;2.08;;;4.20;99.90;;;;;;5047796;28;20095;-68
2023/01/27 08:40:41;;;;;;;5.25;2.90;;;4.20;99.90;;;;;;5058887;28;20020;-68
2023/01/27 08:43:07;;;;;;;5.97;2.03;;;4.30;99.90;;;;;;5071318;28;20036;-68
2023/01/27 08:45:33;;;;;;;8.85;1.88;;;4.30;99.90;;;;;;5073981;28;20021;-68
2023/01/27 08:47:59;;;;;;;6.93;2.15;;;4.40;99.90;;;;;;5073759;28;20032;-68
2023/01/27 08:50:25;;;;;;;4.15;1.95;;;4.50;99.90;;;;;;5061873;28;20024;-68
2023/01/27 08:52:50;;;;;;;6.15;1.88;;;4.60;99.90;;;;;;5070041;28;20123;-68
2023/01/27 08:55:16;;;;;;;5.22;2.35;;;4.70;99.90;;;;;;5056478;28;20459;-68
2023/01/27 08:57:41;;;;;;;3.83;1.70;;;4.80;99.90;;;;;;5067934;28;20031;-68
2023/01/27 09:00:08;;;;;;;5.75;2.20;;;4.90;99.90;;;;;;5062848;28;20420;-68
2023/01/27 09:02:34;;;;;;;4.13;2.47;;;5.00;99.90;;;;;;5066394;28;20040;-69
2023/01/27 09:05:00;;;;;;;5.13;2.25;;;5.00;99.90;;;;;;5062782;28;20075;-68
2023/01/27 09:07:25;;;;;;;6.63;2.33;;;5.10;99.90;;;;;;5071215;28;20029;-68
2023/01/27 09:09:51;;;;;;;7.97;1.73;;;5.20;99.90;;;;;;5072930;28;20032;-68
2023/01/27 09:12:17;;;;;;;7.53;2.25;;;5.30;99.90;;;;;;5054885;28;20035;-69
2023/01/27 09:14:42;;;;;;;3.78;1.60;;;5.40;99.90;;;;;;5060240;28;20150;-68
2023/01/27 09:17:30;;;;;;;4.00;1.50;;;5.40;99.90;;;;;;5068217;28;20120;-69
2023/01/27 09:19:55;;;;;;;7.38;2.33;;;5.50;99.90;;;;;;5069833;28;20480;-69
2023/01/27 09:22:21;;;;;;;4.70;1.90;;;5.60;99.90;;;;;;5067832;28;20045;-68
2023/01/27 09:24:46;;;;;;;5.93;1.58;;;5.60;99.90;;;;;;5068207;28;20044;-69
2023/01/27 09:27:12;;;;;;;6.35;2.00;;;5.70;99.90;;;;;;5056766;28;20040;-69
2023/01/27 09:29:38;;;;;;;2.97;1.60;;;5.80;99.90;;;;;;5066347;28;20036;-69
2023/01/27 09:32:04;;;;;;;2.08;1.30;;;5.80;99.90;;;;;;5063975;28;20035;-68
2023/01/27 09:34:30;;;;;;;5.10;2.05;;;5.80;99.90;;;;;;5066159;28;20476;-68
2023/01/27 09:37:01;;;;;;;3.80;2.20;;;5.90;99.90;;;;;;5047111;28;20039;-70
2023/01/27 09:39:28;;;;;;;5.10;1.90;;;6.00;99.90;;;;;;5061807;28;20079;-70
2023/01/27 09:42:12;;;;;;;4.72;1.70;;;6.00;99.90;;;;;;5059263;28;20473;-70
2023/01/27 09:44:43;;;;;;;4.50;2.08;;;6.10;99.90;;;;;;5058882;28;20037;-68
2023/01/27 09:47:15;;;;;;;3.80;1.57;;;6.20;99.90;;;;;;5064939;28;20033;-69
2023/01/27 09:50:05;;;;;;;2.78;1.40;;;6.20;99.90;;;;;;5059728;28;20744;-67
2023/01/27 09:52:57;;;;;;;3.70;1.63;;;6.30;99.90;;;;;;5059316;28;20036;-70
2023/01/27 09:56:03;;;;;;;3.22;1.50;;;6.30;99.90;;;;;;5063343;28;20043;-69
2023/01/27 09:58:50;;;;;;;3.75;1.10;;;6.40;99.90;;;;;;5060852;28;20460;-68
2023/01/27 10:01:24;;;;;;;2.92;1.70;;;6.40;99.90;;;;;;5058937;28;20017;-69
2023/01/27 10:04:10;;;;;;;3.38;1.30;;;6.40;99.90;;;;;;5060606;28;20028;-69
2023/01/27 10:06:46;;;;;;;6.43;2.55;;;6.50;99.90;;;;;;5059650;28;20041;-68
2023/01/27 10:10:03;;;;;;;5.80;1.85;;;6.50;99.90;;;;;;5069083;28;20495;-68
2023/01/27 10:12:50;;;;;;;8.23;2.35;;;6.50;99.90;;;;;;4995271;28;20123;-68
2023/01/27 10:15:38;;;;;;;4.40;1.98;;;6.50;99.90;;;;;;5066958;28;20484;-68
2023/01/27 10:18:32;;;;;;;11.52;5.25;;;6.60;99.90;;;;;;5052503;28;20071;-68
2023/01/27 10:21:07;;;;;;;4.68;1.88;;;6.60;99.90;;;;;;5061723;28;20037;-68
2023/01/27 10:24:01;;;;;;;5.40;1.88;;;6.60;99.90;;;;;;5056883;28;20029;-69
2023/01/27 10:27:09;;;;;;;4.05;1.58;;;6.60;99.90;;;;;;5067047;28;20024;-68
2023/01/27 10:30:00;;;;;;;2.17;1.60;;;6.60;99.90;;;;;;5059210;28;20054;-68
2023/01/27 10:32:43;;;;;;;3.95;1.70;;;6.60;99.90;;;;;;5066389;28;20029;-68
2023/01/27 10:35:19;;;;;;;3.80;1.50;;;6.60;99.90;;;;;;5063935;28;20040;-69
2023/01/27 10:38:09;;;;;;;4.75;1.73;;;6.60;99.90;;;;;;5058417;28;20028;-69
2023/01/27 10:41:07;;;;;;;3.60;1.30;;;6.60;99.90;;;;;;5064452;28;20083;-69
2023/01/27 10:43:59;;;;;;;4.32;1.60;;;6.70;99.90;;;;;;5066683;28;20488;-68
2023/01/27 10:46:53;;;;;;;1.50;1.40;;;6.80;99.90;;;;;;5058444;28;20033;-69
2023/01/27 10:49:28;;;;;;;2.28;1.02;;;6.90;99.90;;;;;;5049880;28;20040;-68
2023/01/27 10:52:21;;;;;;;3.88;1.30;;;7.00;99.90;;;;;;5063634;28;20058;-68
2023/01/27 10:55:12;;;;;;;1.13;0.95;;;7.10;99.90;;;;;;5062299;28;20068;-68
2023/01/27 10:57:56;;;;;;;2.38;1.10;;;7.30;99.90;;;;;;5066163;28;20037;-68
2023/01/27 11:00:39;;;;;;;1.05;0.80;;;7.40;99.90;;;;;;5061170;28;20025;-68
2023/01/27 11:03:22;;;;;;;2.08;0.80;;;7.60;99.90;;;;;;5064303;28;20477;-69
2023/01/27 11:05:52;;;;;;;1.63;1.10;;;7.80;99.90;;;;;;5061218;28;20021;-68
2023/01/27 11:08:22;;;;;;;1.02;0.80;;;8.00;99.90;;;;;;5066605;28;20028;-68
2023/01/27 11:13:37;;;;;;;1.98;1.27;;;8.00;99.90;;;;;;5061826;28;20434;-68
2023/01/27 11:16:06;;;;;;;2.47;1.10;;;8.00;99.90;;;;;;5065989;28;20028;-70
2023/01/27 11:18:34;;;;;;;1.08;0.70;;;8.00;99.90;;;;;;5071012;28;20123;-67
2023/01/27 11:21:24;;;;;;;3.30;1.10;;;8.10;99.90;;;;;;5073767;28;20128;-69
2023/01/27 11:23:55;;;;;;;1.27;1.10;;;8.10;99.90;;;;;;5063643;28;20388;-68
2023/01/27 11:26:37;;;;;;;3.13;1.30;;;8.20;99.90;;;;;;5064015;28;20032;-68
2023/01/27 11:29:22;;;;;;;4.07;1.17;;;8.30;99.90;;;;;;5070173;28;20037;-68
2023/01/27 11:31:50;;;;;;;0.98;0.88;;;8.40;99.90;;;;;;5073437;28;20028;-68
2023/01/27 11:34:56;;;;;;;1.77;1.10;;;8.60;99.90;;;;;;5056376;28;20041;-68
2023/01/27 11:37:27;;;;;;;5.50;1.20;;;8.70;99.90;;;;;;5060433;28;20087;-68
2023/01/27 11:39:53;;;;;;;2.22;0.93;;;8.60;99.90;;;;;;5066837;28;20115;-67
2023/01/27 11:42:20;;;;;;;2.13;0.90;;;8.60;99.90;;;;;;5062054;28;20037;-68
2023/01/27 11:44:47;;;;;;;1.15;0.93;;;8.60;99.90;;;;;;5048495;28;20043;-68
2023/01/27 11:47:22;;;;;;;4.35;1.15;;;8.60;99.90;;;;;;5064976;28;20124;-68
2023/01/27 11:49:51;;;;;;;2.38;1.00;;;8.80;99.90;;;;;;5068673;28;20031;-68
2023/01/27 11:52:20;;;;;;;0.98;0.75;;;9.00;99.90;;;;;;5064244;28;20037;-68
2023/01/27 11:54:48;;;;;;;2.20;0.70;;;9.40;99.90;;;;;;5061803;28;20020;-68
2023/01/27 11:57:24;;;;;;;2.30;0.95;;;9.70;99.90;;;;;;5064906;28;20034;-68
2023/01/27 12:00:01;;;;;;;3.50;0.90;;;9.70;99.90;;;;;;5071333;28;20051;-68
2023/01/27 12:02:37;;;;;;;0.40;0.40;;;9.60;99.90;;;;;;5061919;28;20021;-68
2023/01/27 12:05:08;;;;;;;0.57;0.52;;;9.40;99.90;;;;;;5057603;28;20048;-68
2023/01/27 12:07:33;;;;;;;3.83;1.13;;;9.30;99.90;;;;;;5067417;28;20041;-68
2023/01/27 12:09:59;;;;;;;1.25;0.73;;;9.20;99.90;;;;;;5067624;28;20033;-68
2023/01/27 12:12:26;;;;;;;0.57;0.50;;;9.20;99.90;;;;;;5067793;28;20041;-71
2023/01/27 12:14:57;;;;;;;3.17;0.75;;;9.20;99.90;;;;;;5067664;28;20026;-70
2023/01/27 12:17:41;;;;;;;1.33;0.63;;;9.10;99.90;;;;;;5064371;28;20494;-71
2023/01/27 12:20:31;;;;;;;2.38;0.70;;;9.00;99.90;;;;;;5066369;28;20036;-69
2023/01/27 12:23:02;;;;;;;0.45;0.45;;;8.90;99.90;;;;;;5069348;28;20032;-69
2023/01/27 12:25:40;;;;;;;0.60;0.60;;;8.80;99.90;;;;;;5059389;28;20052;-70
2023/01/27 12:28:14;;;;;;;1.08;0.43;;;8.60;99.90;;;;;;5070465;28;20037;-70
2023/01/27 12:30:40;;;;;;;3.45;0.50;;;8.50;99.90;;;;;;5062567;28;20044;-70
2023/01/27 12:33:28;;;;;;;0.65;0.60;;;8.40;99.90;;;;;;5057927;28;20024;-68
2023/01/27 12:35:59;;;;;;;4.50;2.17;;;8.30;99.90;;;;;;5060016;28;20056;-70
2023/01/27 12:38:30;;;;;;;0.75;0.68;;;8.20;99.90;;;;;;5068157;28;20063;-70
2023/01/27 12:41:03;;;;;;;2.30;1.50;;;8.10;99.90;;;;;;5071038;28;21008;-68
2023/01/27 12:43:29;;;;;;;0.85;0.68;;;8.00;99.90;;;;;;5066497;28;20028;-70
2023/01/27 12:46:03;;;;;;;0.80;0.60;;;8.00;99.90;;;;;;5074630;28;20523;-70
2023/01/27 12:48:32;;;;;;;2.20;1.10;;;8.00;99.90;;;;;;5059922;28;20029;-70
2023/01/27 12:51:16;;;;;;;1.92;0.82;;;7.90;99.90;;;;;;5068782;28;20106;-68
2023/01/27 12:53:43;;;;;;;1.92;0.98;;;7.80;99.90;;;;;;5070256;28;20029;-69
2023/01/27 12:56:35;;;;;;;2.15;1.30;;;7.80;99.90;;;;;;5071305;28;20048;-70
2023/01/27 12:59:02;;;;;;;5.25;2.20;;;7.80;99.90;;;;;;5059455;28;20460;-71
2023/01/27 13:01:29;;;;;;;1.20;1.10;;;7.80;99.90;;;;;;5054900;28;20032;-68
2023/01/27 13:04:01;;;;;;;3.55;1.95;;;7.80;99.90;;;;;;5072473;28;20036;-69
2023/01/27 13:06:36;;;;;;;1.95;1.10;;;7.80;99.90;;;;;;5073871;28;20499;-69
2023/01/27 13:09:02;;;;;;;2.75;1.60;;;7.80;99.90;;;;;;5073489;28;20456;-67
2023/01/27 13:11:39;;;;;;;2.25;1.40;;;7.80;99.90;;;;;;5074096;28;20040;-67
2023/01/27 13:14:15;;;;;;;1.98;0.60;;;7.80;99.90;;;;;;5071636;28;20028;-68
2023/01/27 13:16:41;;;;;;;1.77;0.82;;;7.80;99.90;;;;;;5049063;28;20095;-69
2023/01/27 13:19:15;;;;;;;2.10;1.13;;;7.70;99.90;;;;;;5057753;28;20198;-68
2023/01/27 13:21:42;;;;;;;5.53;1.77;;;7.70;99.90;;;;;;5035118;28;20034;-71
2023/01/27 13:24:26;;;;;;;3.25;1.60;;;7.60;99.90;;;;;;5035884;28;20040;-68
2023/01/27 13:26:54;;;;;;;5.85;2.00;;;7.50;99.90;;;;;;5043608;28;20048;-67
2023/01/27 13:29:33;;;;;;;5.25;1.70;;;7.40;99.90;;;;;;5041479;28;20032;-68
2023/01/27 13:32:23;;;;;;;3.15;1.25;;;7.40;99.90;;;;;;5041990;28;20068;-68
2023/01/27 13:34:59;;;;;;;2.95;1.42;;;7.30;99.90;;;;;;5041844;28;20212;-68
2023/01/27 13:37:31;;;;;;;7.15;2.25;;;7.20;99.90;;;;;;5044855;28;20055;-69
2023/01/27 13:40:29;;;;;;;7.93;2.42;;;7.20;99.90;;;;;;5042600;28;20025;-68